DIAP

Port Bouet Airport

Abidjan, Côte D’Ivoire
METAR DIAP 140030Z 20005KT 9999 TS SCT015 FEW020CB 28/25 Q1014 NOSIG
Observed Flight Rules
Dec-14 @ 00:30 UTC (40 minutes ago) Visual Flight Rules
Wind Visibility Clouds Conditions
200° at 5 knots 10,000+ meters
  • Scattered at 1,500' AGL
  • Few at 2,000' AGL
  • Thunderstorm
Temperatures Readings
Current 28°C / 82°F
Dewpoint 25°C / 77°F
Humidity 84%
Altimeter 29.94" Hg
Pressure 1014 hPa
Elevation 8
METAR DIAP 140030Z 20005KT 9999 TS SCT015 FEW020CB 28/25 Q1014 NOSIG
Observed Flight Rules
Dec-14 @ 00:30 UTC
(40 minutes ago)
VFR
Wind Visibility
200° at 5 knots 10,000+ meters
Clouds
  • Scattered at 1,500' AGL
  • Few at 2,000' AGL
Conditions
  • Thunderstorm
Temperature Dewpoint
28°C / 82°F 25°C / 77°F
Humidity Altimeter Pressure
84% 29.94" Hg 1014 hPa